createdAt,value
2019-04-29T04:23:57.812Z,216.00
2019-04-29T04:24:53.483Z,232.00
2019-04-29T04:25:53.486Z,248.00
2019-04-29T04:26:53.475Z,268.00
2019-04-29T04:27:53.460Z,284.00
2019-04-29T04:28:53.442Z,304.00
2019-04-29T04:29:53.458Z,328.00
2019-04-29T04:30:53.443Z,348.00
2019-04-29T04:31:53.420Z,376.00
2019-04-29T04:32:53.434Z,400.00
2019-04-29T04:33:53.429Z,428.00
2019-04-29T04:34:53.351Z,456.00
2019-04-29T04:35:53.395Z,480.00
2019-04-29T04:36:53.333Z,516.00
2019-04-29T04:37:53.354Z,548.00
2019-04-29T04:38:53.350Z,580.00
2019-04-29T04:39:53.300Z,612.00
2019-04-29T04:40:53.291Z,648.00
2019-04-29T04:41:53.314Z,688.00
2019-04-29T04:42:53.266Z,724.00
2019-04-29T04:43:53.261Z,768.00
2019-04-29T04:44:53.246Z,812.00
2019-04-29T04:45:53.320Z,864.00
2019-04-29T04:46:53.228Z,920.00
2019-04-29T04:47:53.244Z,972.00
2019-04-29T04:48:53.224Z,1028.00
2019-04-29T04:49:53.191Z,1092.00
2019-04-29T04:50:53.187Z,1168.00
2019-04-29T04:51:53.189Z,1268.00
2019-04-29T04:52:53.177Z,1384.00
2019-04-29T04:53:53.179Z,1524.00
2019-04-29T04:54:53.136Z,1696.00
2019-04-29T04:55:53.131Z,1948.00
2019-04-29T04:56:53.125Z,2328.00
2019-04-29T04:57:53.188Z,2852.00
2019-04-29T04:58:53.112Z,3464.00
2019-04-29T04:59:53.149Z,4156.00
2019-04-29T05:00:53.086Z,5224.00
2019-04-29T05:01:53.075Z,5960.00
2019-04-29T05:02:53.073Z,5740.00
2019-04-29T05:03:53.061Z,4808.00
2019-04-29T05:04:53.063Z,3912.00
2019-04-29T05:05:53.031Z,3872.00
2019-04-29T05:06:53.062Z,4080.00
2019-04-29T05:07:53.029Z,4868.00
2019-04-29T05:08:53.094Z,7952.00
2019-04-29T05:09:53.045Z,11848.00
2019-04-29T05:10:53.029Z,13440.00
2019-04-29T05:11:53.016Z,13824.00
2019-04-29T05:12:53.013Z,14688.00
2019-04-29T05:13:52.961Z,16128.00
2019-04-29T05:14:52.955Z,18272.00
2019-04-29T05:15:52.952Z,18848.00
2019-04-29T05:16:52.969Z,18592.00
2019-04-29T05:17:53.340Z,17536.00
2019-04-29T05:18:52.945Z,19328.00
2019-04-29T05:19:52.943Z,23104.00
2019-04-29T05:20:52.928Z,24448.00
2019-04-29T05:21:52.914Z,26784.00
2019-04-29T05:22:52.898Z,26400.00
2019-04-29T05:23:52.908Z,27776.00
2019-04-29T05:24:52.909Z,27520.00
2019-04-29T05:25:52.918Z,24864.00
2019-04-29T05:26:52.896Z,22176.00
2019-04-29T05:27:52.899Z,21632.00
2019-04-29T05:28:52.907Z,22464.00
2019-04-29T05:29:52.914Z,22560.00
2019-04-29T05:30:52.873Z,25600.00
2019-04-29T05:31:52.894Z,27040.00
2019-04-29T05:32:52.899Z,29728.00
2019-04-29T05:33:52.880Z,34016.00
2019-04-29T05:34:55.002Z,36832.00
2019-04-29T05:35:56.735Z,39776.00
2019-04-29T05:36:52.876Z,41888.00
2019-04-29T05:37:52.870Z,42720.00
2019-04-29T05:38:52.836Z,47936.00
2019-04-29T05:39:52.871Z,52416.00
2019-04-29T05:40:52.854Z,49792.00
2019-04-29T05:41:52.837Z,43744.00
2019-04-29T05:42:54.060Z,41344.00
2019-04-29T05:43:52.863Z,34848.00
2019-04-29T05:44:52.835Z,38208.00
2019-04-29T05:45:52.826Z,36032.00
2019-04-29T05:46:52.837Z,8644.00
2019-04-29T05:47:57.088Z,34624.00
2019-04-29T05:48:52.847Z,16704.00
2019-04-29T05:49:52.832Z,28160.00
2019-04-29T05:50:53.225Z,7608.00
2019-04-29T05:51:52.853Z,7456.00
2019-04-29T05:52:52.828Z,21408.00
2019-04-29T05:53:55.113Z,6060.00
2019-04-29T05:54:52.822Z,5640.00
2019-04-29T05:55:52.839Z,6092.00
2019-04-29T05:56:52.824Z,6376.00
2019-04-29T05:57:55.415Z,8140.00
2019-04-29T05:58:52.834Z,14620.00
2019-04-29T05:59:52.847Z,13084.00
2019-04-29T06:00:52.819Z,13992.00
2019-04-29T06:01:52.831Z,14928.00
2019-04-29T06:02:52.816Z,18656.00
2019-04-29T06:03:52.868Z,19680.00
2019-04-29T06:04:54.024Z,18336.00
2019-04-29T06:05:52.814Z,15872.00
2019-04-29T06:06:52.800Z,14172.00
2019-04-29T06:07:56.251Z,9432.00
2019-04-29T06:08:52.794Z,6748.00
2019-04-29T06:09:52.797Z,5532.00
2019-04-29T06:10:52.800Z,5124.00
2019-04-29T06:11:52.791Z,4816.00
2019-04-29T06:12:52.802Z,4452.00
2019-04-29T06:13:52.798Z,4076.00
2019-04-29T06:14:52.782Z,4012.00
2019-04-29T06:15:52.790Z,3924.00
2019-04-29T06:16:53.056Z,3848.00
2019-04-29T06:17:52.791Z,3720.00
2019-04-29T06:18:59.669Z,3608.00
2019-04-29T06:19:52.778Z,3456.00
2019-04-29T06:20:52.757Z,3248.00
2019-04-29T06:21:52.776Z,3024.00
2019-04-29T06:22:52.766Z,2852.00
2019-04-29T06:23:54.534Z,2676.00
2019-04-29T06:24:52.742Z,2532.00
2019-04-29T06:25:52.777Z,2400.00
2019-04-29T06:26:52.731Z,2292.00
2019-04-29T06:27:52.742Z,2080.00
2019-04-29T06:28:52.735Z,2016.00
2019-04-29T06:29:52.754Z,1972.00
2019-04-29T06:30:52.760Z,1940.00
2019-04-29T06:31:52.721Z,1932.00
2019-04-29T06:32:52.743Z,1940.00
2019-04-29T06:33:52.757Z,1944.00
2019-04-29T06:34:52.765Z,1976.00
2019-04-29T06:35:52.734Z,1992.00
2019-04-29T06:36:52.718Z,2008.00
2019-04-29T06:37:52.716Z,2068.00
2019-04-29T06:38:52.700Z,2108.00
2019-04-29T06:39:52.681Z,2148.00
2019-04-29T06:40:52.689Z,2168.00
2019-04-29T06:41:52.711Z,2188.00
2019-04-29T06:42:55.230Z,2208.00
2019-04-29T06:43:55.897Z,2228.00
2019-04-29T06:44:52.668Z,2256.00
2019-04-29T06:45:52.755Z,2264.00
2019-04-29T06:46:54.520Z,2276.00
2019-04-29T06:47:52.696Z,2292.00
2019-04-29T06:48:52.622Z,2312.00
2019-04-29T06:49:52.645Z,2316.00
2019-04-29T06:50:52.654Z,2352.00
2019-04-29T06:51:52.635Z,2364.00
2019-04-29T06:52:52.632Z,2396.00
2019-04-29T06:53:52.610Z,2408.00
2019-04-29T06:54:52.585Z,2420.00
2019-04-29T06:55:52.606Z,2452.00
2019-04-29T06:56:52.668Z,2460.00
2019-04-29T06:57:52.650Z,2492.00
2019-04-29T06:58:52.577Z,2480.00
2019-04-29T06:59:54.754Z,2472.00
2019-04-29T07:00:55.749Z,2488.00
2019-04-29T07:01:52.562Z,2484.00
2019-04-29T07:02:52.539Z,2476.00
2019-04-29T07:03:55.800Z,2468.00
2019-04-29T07:04:52.591Z,2476.00
2019-04-29T07:05:52.533Z,2460.00
2019-04-29T07:06:57.543Z,2464.00
2019-04-29T07:07:52.514Z,2456.00
2019-04-29T07:08:52.541Z,2460.00
2019-04-29T07:09:52.509Z,2464.00
2019-04-29T07:10:55.822Z,2468.00
2019-04-29T07:11:52.501Z,2480.00
2019-04-29T07:12:52.503Z,2480.00
2019-04-29T07:13:53.441Z,2500.00
2019-04-29T07:14:52.477Z,2472.00
2019-04-29T07:15:52.504Z,2536.00
2019-04-29T07:16:52.457Z,2492.00
2019-04-29T07:17:52.455Z,2468.00
2019-04-29T07:18:53.827Z,2488.00
2019-04-29T07:19:52.448Z,2484.00
2019-04-29T07:20:52.536Z,2472.00
2019-04-29T07:21:54.998Z,2472.00
2019-04-29T07:22:52.472Z,2468.00
2019-04-29T07:23:52.439Z,2460.00
2019-04-29T07:24:52.417Z,2448.00
2019-04-29T07:25:52.419Z,2444.00
2019-04-29T07:26:52.437Z,2448.00
2019-04-29T07:27:52.405Z,2436.00
2019-04-29T07:28:55.072Z,2440.00
2019-04-29T07:29:52.389Z,2432.00
2019-04-29T07:31:01.764Z,2416.00
2019-04-29T07:31:52.397Z,2412.00
2019-04-29T07:32:52.405Z,2404.00
2019-04-29T07:33:53.673Z,2380.00
2019-04-29T07:34:52.351Z,2364.00
2019-04-29T07:35:52.361Z,2376.00
2019-04-29T07:36:53.186Z,2360.00
2019-04-29T07:37:52.389Z,2364.00
2019-04-29T07:38:56.283Z,2364.00
2019-04-29T07:39:52.328Z,2380.00
2019-04-29T07:40:52.349Z,2388.00
2019-04-29T07:41:53.686Z,2404.00
2019-04-29T07:42:52.320Z,2416.00
2019-04-29T07:43:52.338Z,2412.00
2019-04-29T07:44:52.803Z,2428.00
2019-04-29T07:45:52.448Z,2408.00
2019-04-29T07:46:56.608Z,2416.00
2019-04-29T07:47:56.469Z,2408.00
2019-04-29T07:49:01.223Z,2412.00
2019-04-29T07:49:53.023Z,2400.00
2019-04-29T07:50:52.287Z,2396.00
2019-04-29T07:51:52.270Z,2404.00
2019-04-29T07:52:52.260Z,2416.00
2019-04-29T07:53:52.298Z,2408.00
2019-04-29T07:54:56.078Z,2396.00
2019-04-29T07:55:52.253Z,2436.00
2019-04-29T07:56:52.244Z,2420.00
2019-04-29T07:57:53.227Z,2464.00
2019-04-29T07:58:52.239Z,2476.00
2019-04-29T07:59:52.249Z,2500.00
2019-04-29T08:00:52.233Z,2504.00
2019-04-29T08:01:55.779Z,2512.00
2019-04-29T08:02:52.208Z,2552.00
2019-04-29T08:03:52.204Z,2588.00
2019-04-29T08:04:52.202Z,2560.00
2019-04-29T08:05:52.199Z,2524.00
2019-04-29T08:06:52.219Z,2540.00
2019-04-29T08:07:52.176Z,2544.00
2019-04-29T08:08:55.570Z,2576.00
2019-04-29T08:09:52.196Z,2576.00
2019-04-29T08:10:56.431Z,2588.00
2019-04-29T08:11:52.197Z,2588.00
2019-04-29T08:12:52.154Z,2600.00
2019-04-29T08:13:52.168Z,2596.00
2019-04-29T08:14:53.469Z,2604.00
2019-04-29T08:15:52.142Z,2600.00
2019-04-29T08:16:52.158Z,2620.00
2019-04-29T08:18:05.552Z,2632.00
2019-04-29T08:18:53.607Z,2616.00
2019-04-29T08:19:52.142Z,2620.00
2019-04-29T08:20:52.149Z,2704.00
2019-04-29T08:21:52.223Z,2720.00
2019-04-29T08:22:52.111Z,2720.00
2019-04-29T08:23:52.104Z,2736.00
2019-04-29T08:24:52.269Z,2760.00
2019-04-29T08:25:52.102Z,2716.00
2019-04-29T08:26:52.094Z,2792.00
2019-04-29T08:27:52.083Z,2800.00
2019-04-29T08:28:52.901Z,2804.00
2019-04-29T08:29:52.070Z,2836.00
2019-04-29T08:30:52.066Z,2804.00
2019-04-29T08:31:56.689Z,2844.00
2019-04-29T08:32:52.071Z,2868.00
2019-04-29T08:33:52.054Z,2872.00
2019-04-29T08:34:53.692Z,2864.00
2019-04-29T08:35:52.069Z,2896.00
2019-04-29T08:36:52.045Z,2900.00
2019-04-29T08:37:52.028Z,2900.00
2019-04-29T08:38:52.023Z,2888.00
2019-04-29T08:40:08.412Z,2928.00
2019-04-29T08:40:52.023Z,2908.00
2019-04-29T08:41:52.036Z,2932.00
2019-04-29T08:42:52.003Z,2924.00
2019-04-29T08:43:52.521Z,2936.00
2019-04-29T08:44:54.754Z,2940.00
2019-04-29T08:45:52.037Z,2944.00
2019-04-29T08:46:52.910Z,2992.00
2019-04-29T08:47:52.026Z,2984.00
2019-04-29T08:48:51.996Z,2996.00
2019-04-29T08:49:51.981Z,2976.00
2019-04-29T08:50:52.001Z,3028.00
2019-04-29T08:51:51.997Z,2968.00
2019-04-29T08:52:51.992Z,2956.00
2019-04-29T08:53:51.955Z,3000.00
2019-04-29T08:54:55.482Z,2996.00
2019-04-29T08:55:51.971Z,3008.00
2019-04-29T08:57:04.335Z,3016.00
2019-04-29T08:57:51.947Z,3020.00
2019-04-29T08:58:51.931Z,3028.00
2019-04-29T08:59:51.940Z,2952.00
2019-04-29T09:00:55.678Z,3020.00
2019-04-29T09:01:51.950Z,3020.00
2019-04-29T09:02:51.910Z,3016.00
2019-04-29T09:03:53.778Z,3012.00
2019-04-29T09:04:53.752Z,3076.00
2019-04-29T09:06:04.266Z,2976.00
2019-04-29T09:06:51.904Z,2944.00
2019-04-29T09:07:52.467Z,2960.00
2019-04-29T09:08:55.509Z,2984.00
2019-04-29T09:09:56.145Z,3016.00
2019-04-29T09:10:51.887Z,3012.00
2019-04-29T09:11:51.924Z,2992.00
2019-04-29T09:12:51.901Z,2972.00
2019-04-29T09:13:51.864Z,2996.00
2019-04-29T09:14:51.877Z,2968.00
2019-04-29T09:15:51.875Z,2904.00
2019-04-29T09:16:51.871Z,2920.00
2019-04-29T09:17:51.862Z,2884.00
2019-04-29T09:18:51.849Z,2896.00
2019-04-29T09:19:51.851Z,2864.00
2019-04-29T09:20:52.022Z,2880.00
2019-04-29T09:21:51.834Z,2904.00
2019-04-29T09:22:51.869Z,2892.00
2019-04-29T09:23:51.828Z,2924.00
2019-04-29T09:24:51.827Z,2940.00
2019-04-29T09:26:02.454Z,2924.00
2019-04-29T09:26:51.828Z,2908.00
2019-04-29T09:27:51.848Z,2888.00
2019-04-29T09:28:51.812Z,2860.00
2019-04-29T09:29:54.217Z,2856.00
2019-04-29T09:30:51.826Z,2864.00
2019-04-29T09:31:51.830Z,2832.00
2019-04-29T09:32:51.795Z,2808.00
2019-04-29T09:33:59.717Z,2784.00
2019-04-29T09:34:55.558Z,2784.00
2019-04-29T09:35:51.787Z,2728.00
2019-04-29T09:36:51.796Z,2784.00
2019-04-29T09:37:53.882Z,2648.00
2019-04-29T09:38:51.795Z,2696.00
2019-04-29T09:39:51.763Z,2728.00
2019-04-29T09:40:54.460Z,2676.00
2019-04-29T09:41:51.759Z,2668.00
2019-04-29T09:42:51.890Z,2692.00
2019-04-29T09:43:51.750Z,2660.00
2019-04-29T09:44:51.745Z,2656.00
2019-04-29T09:45:53.935Z,2660.00
2019-04-29T09:46:51.757Z,2668.00
2019-04-29T09:47:51.733Z,2660.00
2019-04-29T09:48:51.722Z,2652.00
2019-04-29T09:49:51.721Z,2632.00
2019-04-29T09:50:51.724Z,2640.00
2019-04-29T09:51:51.710Z,2580.00
2019-04-29T09:52:51.757Z,2604.00
2019-04-29T09:53:51.709Z,2640.00
2019-04-29T09:54:51.712Z,2608.00
2019-04-29T09:55:51.724Z,2620.00
2019-04-29T09:56:51.695Z,2608.00
2019-04-29T09:57:51.706Z,2620.00
2019-04-29T09:58:51.690Z,2584.00
2019-04-29T09:59:51.682Z,2612.00
2019-04-29T10:00:51.689Z,2604.00
2019-04-29T10:01:55.105Z,2608.00
2019-04-29T10:02:51.673Z,2600.00
2019-04-29T10:03:51.691Z,2632.00
2019-04-29T10:04:56.932Z,2548.00
2019-04-29T10:05:51.692Z,2660.00
2019-04-29T10:06:51.662Z,2644.00
2019-04-29T10:07:51.687Z,2584.00
2019-04-29T10:08:51.661Z,2660.00
2019-04-29T10:09:57.305Z,2652.00
2019-04-29T10:10:51.651Z,2656.00
2019-04-29T10:11:51.643Z,2656.00
2019-04-29T10:12:53.910Z,2672.00
2019-04-29T10:13:51.646Z,2640.00
2019-04-29T10:14:51.706Z,2648.00
2019-04-29T10:15:51.659Z,2624.00
2019-04-29T10:16:51.671Z,2600.00
2019-04-29T10:17:55.515Z,2616.00
2019-04-29T10:18:51.618Z,2616.00
2019-04-29T10:19:51.618Z,2572.00
2019-04-29T10:20:51.643Z,2648.00
2019-04-29T10:21:51.606Z,2684.00
2019-04-29T10:22:53.864Z,2676.00
2019-04-29T10:23:51.608Z,2688.00
2019-04-29T10:24:51.612Z,2636.00
2019-04-29T10:25:51.620Z,2664.00
2019-04-29T10:26:51.633Z,2696.00
2019-04-29T10:27:51.619Z,2716.00
2019-04-29T10:28:51.640Z,2728.00
2019-04-29T10:29:55.367Z,2740.00
2019-04-29T10:30:51.586Z,2744.00
2019-04-29T10:31:51.604Z,2764.00
2019-04-29T10:32:51.581Z,2748.00
2019-04-29T10:33:55.016Z,2744.00
2019-04-29T10:34:51.604Z,2748.00
2019-04-29T10:35:51.568Z,2728.00
2019-04-29T10:36:52.541Z,2744.00
2019-04-29T10:37:51.558Z,2744.00
2019-04-29T10:38:51.563Z,2528.00
2019-04-29T10:39:51.552Z,2736.00
2019-04-29T10:40:51.548Z,2748.00
2019-04-29T10:41:51.577Z,2728.00
2019-04-29T10:42:51.556Z,2708.00
2019-04-29T10:43:53.662Z,2696.00
2019-04-29T10:44:51.559Z,2712.00
2019-04-29T10:45:51.547Z,2696.00
2019-04-29T10:46:51.565Z,2704.00
2019-04-29T10:47:51.555Z,2716.00
2019-04-29T10:48:51.563Z,2708.00
2019-04-29T10:49:51.531Z,2704.00
2019-04-29T10:50:52.038Z,2688.00
2019-04-29T10:51:51.568Z,2688.00
2019-04-29T10:52:51.531Z,2688.00
2019-04-29T10:53:52.690Z,2712.00
2019-04-29T10:54:55.256Z,2720.00
2019-04-29T10:55:51.522Z,2696.00
2019-04-29T10:56:51.544Z,2672.00
2019-04-29T10:57:51.550Z,2712.00
2019-04-29T10:58:51.504Z,2716.00
2019-04-29T10:59:51.542Z,2728.00
2019-04-29T11:00:52.737Z,2716.00
2019-04-29T11:02:01.088Z,2728.00
2019-04-29T11:02:51.506Z,2736.00
2019-04-29T11:03:51.529Z,2716.00
2019-04-29T11:04:51.492Z,2692.00
2019-04-29T11:06:00.315Z,2628.00
2019-04-29T11:06:51.499Z,2660.00
2019-04-29T11:07:51.492Z,2652.00
2019-04-29T11:08:51.484Z,2648.00
2019-04-29T11:09:52.652Z,2628.00
2019-04-29T11:10:51.505Z,2604.00
2019-04-29T11:11:51.472Z,2624.00
2019-04-29T11:12:51.540Z,2432.00
2019-04-29T11:13:51.561Z,2600.00
2019-04-29T11:14:51.505Z,2560.00
2019-04-29T11:15:51.467Z,2624.00
2019-04-29T11:16:51.533Z,2600.00
2019-04-29T11:17:58.862Z,2620.00
2019-04-29T11:18:55.023Z,2584.00
2019-04-29T11:19:51.505Z,2580.00
2019-04-29T11:20:53.639Z,2604.00
2019-04-29T11:21:51.503Z,2648.00
2019-04-29T11:22:51.454Z,2612.00
2019-04-29T11:23:54.898Z,2640.00
2019-04-29T11:24:51.466Z,2596.00
2019-04-29T11:25:51.619Z,2664.00
2019-04-29T11:26:51.487Z,2632.00
2019-04-29T11:27:51.457Z,2612.00
2019-04-29T11:28:52.384Z,2604.00
2019-04-29T11:29:51.451Z,2592.00
2019-04-29T11:30:51.444Z,2556.00
2019-04-29T11:31:54.188Z,2612.00
2019-04-29T11:32:51.459Z,2636.00
2019-04-29T11:33:51.488Z,2660.00
2019-04-29T11:34:53.508Z,2648.00
2019-04-29T11:35:51.476Z,2688.00
2019-04-29T11:36:51.448Z,2692.00
2019-04-29T11:37:55.381Z,2656.00
2019-04-29T11:38:51.446Z,2660.00
2019-04-29T11:39:51.807Z,2620.00
2019-04-29T11:40:51.422Z,2716.00
2019-04-29T11:41:54.568Z,2696.00
2019-04-29T11:42:51.425Z,2704.00
2019-04-29T11:43:52.815Z,2744.00
2019-04-29T11:44:51.424Z,2712.00
2019-04-29T11:45:51.406Z,2684.00
2019-04-29T11:46:51.404Z,2672.00
2019-04-29T11:47:51.412Z,2708.00
2019-04-29T11:48:51.407Z,2716.00
2019-04-29T11:49:51.411Z,2704.00
2019-04-29T11:50:54.714Z,2712.00
2019-04-29T11:52:08.732Z,2692.00
2019-04-29T11:52:51.403Z,2672.00
2019-04-29T11:53:51.427Z,2656.00
2019-04-29T11:54:51.403Z,2652.00
2019-04-29T11:55:52.574Z,2528.00
2019-04-29T11:56:51.447Z,2580.00
2019-04-29T11:57:51.404Z,2596.00
2019-04-29T11:58:51.385Z,2556.00
2019-04-29T11:59:51.386Z,2528.00
2019-04-29T12:00:52.067Z,2564.00
2019-04-29T12:01:53.312Z,2480.00
2019-04-29T12:02:51.384Z,2460.00
2019-04-29T12:03:56.271Z,2464.00
2019-04-29T12:04:51.378Z,2460.00
2019-04-29T12:05:51.382Z,2476.00
2019-04-29T12:06:56.106Z,2500.00
2019-04-29T12:07:51.385Z,2548.00
2019-04-29T12:08:53.221Z,2508.00
2019-04-29T12:09:51.368Z,2556.00
2019-04-29T12:11:06.059Z,2536.00
2019-04-29T12:11:51.373Z,2460.00
2019-04-29T12:12:51.444Z,2544.00
2019-04-29T12:13:51.388Z,2516.00
2019-04-29T12:14:51.368Z,2432.00
2019-04-29T12:15:51.374Z,2536.00
2019-04-29T12:16:54.576Z,2548.00
2019-04-29T12:17:51.382Z,2568.00
2019-04-29T12:18:51.361Z,2520.00
2019-04-29T12:19:51.402Z,2516.00
2019-04-29T12:20:51.411Z,2508.00
2019-04-29T12:21:51.406Z,2484.00
2019-04-29T12:22:51.386Z,2480.00
2019-04-29T12:23:52.030Z,2356.00
2019-04-29T12:24:51.348Z,2436.00
2019-04-29T12:25:51.393Z,2440.00
2019-04-29T12:26:51.346Z,2428.00
2019-04-29T12:28:01.166Z,2432.00
2019-04-29T12:28:51.357Z,2408.00
2019-04-29T12:29:54.287Z,2412.00
2019-04-29T12:30:51.362Z,2420.00
2019-04-29T12:31:51.417Z,2444.00
2019-04-29T12:32:51.355Z,2264.00
2019-04-29T12:33:51.360Z,2392.00
2019-04-29T12:34:51.378Z,2408.00
2019-04-29T12:35:52.334Z,2412.00
2019-04-29T12:36:56.206Z,2400.00
2019-04-29T12:37:51.314Z,2372.00
2019-04-29T12:38:51.578Z,2416.00
2019-04-29T12:39:51.316Z,2408.00
2019-04-29T12:40:55.026Z,2436.00
2019-04-29T12:41:51.322Z,2440.00
2019-04-29T12:42:51.346Z,2456.00
2019-04-29T12:43:53.552Z,2452.00
2019-04-29T12:44:51.328Z,2460.00
2019-04-29T12:45:53.722Z,2484.00
2019-04-29T12:46:51.323Z,2460.00
2019-04-29T12:47:51.313Z,2452.00
2019-04-29T12:48:51.309Z,2452.00
2019-04-29T12:49:51.301Z,2388.00
2019-04-29T12:50:57.376Z,2412.00
2019-04-29T12:51:51.304Z,2412.00
2019-04-29T12:52:51.366Z,2412.00
2019-04-29T12:54:00.073Z,2400.00
2019-04-29T12:55:55.964Z,2388.00
2019-04-29T12:56:55.768Z,2360.00
2019-04-29T12:57:55.796Z,2332.00
2019-04-29T12:58:59.608Z,2288.00
2019-04-29T12:59:55.787Z,2312.00
2019-04-29T13:00:59.952Z,2308.00
2019-04-29T13:01:58.568Z,2292.00
2019-04-29T13:02:59.835Z,2280.00
2019-04-29T13:03:55.763Z,2284.00
2019-04-29T13:04:55.763Z,2284.00
2019-04-29T13:05:58.261Z,2300.00
2019-04-29T13:06:55.806Z,2304.00
2019-04-29T13:07:55.769Z,2336.00
2019-04-29T13:08:55.801Z,2328.00
2019-04-29T13:09:55.759Z,2332.00
2019-04-29T13:10:55.756Z,2332.00
2019-04-29T13:12:11.149Z,2324.00
2019-04-29T13:12:58.122Z,2328.00
2019-04-29T13:13:58.274Z,2328.00
2019-04-29T13:15:02.743Z,2340.00
2019-04-29T13:15:55.761Z,2320.00
2019-04-29T13:16:57.003Z,2344.00
2019-04-29T13:18:03.064Z,2356.00
2019-04-29T13:19:00.069Z,2360.00
2019-04-29T13:20:02.254Z,2336.00
2019-04-29T13:21:09.125Z,2316.00
2019-04-29T13:21:55.745Z,2328.00
2019-04-29T13:23:00.549Z,2360.00
2019-04-29T13:24:12.550Z,2364.00
2019-04-29T13:24:55.750Z,2376.00
2019-04-29T13:25:56.394Z,2372.00
2019-04-29T13:26:55.751Z,2408.00
2019-04-29T13:28:03.681Z,2340.00
2019-04-29T13:29:01.160Z,2388.00
2019-04-29T13:29:55.759Z,2364.00
2019-04-29T13:30:56.935Z,2336.00
2019-04-29T13:31:55.788Z,2296.00
2019-04-29T13:32:55.764Z,2276.00
2019-04-29T13:33:55.777Z,2256.00
2019-04-29T13:34:55.764Z,2216.00
2019-04-29T13:35:55.752Z,2096.00
2019-04-29T13:37:06.470Z,2116.00
2019-04-29T13:37:55.736Z,2076.00
2019-04-29T13:38:55.767Z,2072.00
2019-04-29T13:39:55.891Z,2020.00
2019-04-29T13:41:11.794Z,1984.00
2019-04-29T13:41:58.023Z,1932.00
2019-04-29T13:42:55.758Z,1876.00
2019-04-29T13:44:04.421Z,1860.00
2019-04-29T13:45:07.444Z,1836.00
2019-04-29T13:45:55.970Z,1796.00
2019-04-29T13:46:55.736Z,1804.00
2019-04-29T13:47:55.744Z,1788.00
2019-04-29T13:48:59.775Z,1840.00
2019-04-29T13:49:55.754Z,1824.00
2019-04-29T13:50:55.725Z,1800.00
2019-04-29T13:51:55.730Z,1824.00
2019-04-29T13:52:55.739Z,1868.00
2019-04-29T13:53:59.837Z,1884.00
2019-04-29T13:54:55.735Z,1888.00
2019-04-29T13:56:10.302Z,1904.00
2019-04-29T13:56:56.842Z,1920.00
2019-04-29T13:57:55.719Z,1924.00
2019-04-29T13:58:58.630Z,1940.00
2019-04-29T13:59:55.707Z,1940.00
2019-04-29T14:00:59.436Z,1904.00
2019-04-29T14:02:01.243Z,1884.00
2019-04-29T14:02:59.139Z,1852.00
2019-04-29T14:03:55.723Z,1848.00
2019-04-29T14:04:56.018Z,1820.00
2019-04-29T14:06:04.007Z,1836.00
2019-04-29T14:06:57.348Z,1804.00
2019-04-29T14:07:55.727Z,1772.00
2019-04-29T14:08:55.707Z,1732.00
2019-04-29T14:09:55.708Z,1708.00
2019-04-29T14:10:57.283Z,1700.00
2019-04-29T14:12:04.346Z,1672.00
2019-04-29T14:13:55.740Z,1564.00
2019-04-29T14:14:58.495Z,1516.00
2019-04-29T14:15:55.727Z,1500.00
2019-04-29T14:17:17.026Z,1484.00
2019-04-29T14:17:55.690Z,1468.00
2019-04-29T14:18:53.585Z,1632.00
2019-04-29T14:18:55.708Z,1460.00
2019-04-29T14:19:57.075Z,1440.00
2019-04-29T14:20:55.949Z,1424.00
2019-04-29T14:21:55.685Z,1416.00
2019-04-29T14:22:55.673Z,1400.00
2019-04-29T14:23:55.994Z,1372.00
2019-04-29T14:24:55.705Z,1324.00
2019-04-29T14:25:55.699Z,1308.00
2019-04-29T14:26:55.708Z,1328.00
2019-04-29T14:27:55.684Z,1348.00
2019-04-29T14:28:55.707Z,1356.00
2019-04-29T14:29:55.674Z,1368.00
2019-04-29T14:30:56.035Z,1384.00
2019-04-29T14:31:59.196Z,1384.00
2019-04-29T14:32:55.710Z,1400.00
2019-04-29T14:33:59.818Z,1424.00
2019-04-29T14:34:55.662Z,1452.00
2019-04-29T14:35:55.709Z,1476.00
2019-04-29T14:37:10.521Z,1508.00
2019-04-29T14:38:00.064Z,1512.00
2019-04-29T14:38:55.675Z,1556.00
2019-04-29T14:39:55.670Z,1580.00
2019-04-29T14:40:55.696Z,1592.00
2019-04-29T14:41:56.478Z,1600.00
2019-04-29T14:42:57.850Z,1584.00
2019-04-29T14:43:57.023Z,1580.00
2019-04-29T14:44:55.655Z,1564.00
2019-04-29T14:45:55.651Z,1524.00
2019-04-29T14:46:56.219Z,1504.00
2019-04-29T14:47:55.645Z,1480.00
2019-04-29T14:48:59.574Z,1456.00
2019-04-29T14:49:55.646Z,1432.00
2019-04-29T14:50:56.140Z,1420.00
2019-04-29T14:51:55.647Z,1400.00
2019-04-29T14:52:55.686Z,1396.00
2019-04-29T14:53:57.071Z,1392.00
2019-04-29T14:54:55.698Z,1380.00
2019-04-29T14:55:55.676Z,1324.00
2019-04-29T14:56:55.650Z,1324.00
2019-04-29T14:57:55.728Z,1336.00
2019-04-29T14:59:06.672Z,1328.00
2019-04-29T14:59:55.765Z,1320.00
2019-04-29T15:00:55.650Z,1316.00
2019-04-29T15:01:55.671Z,1320.00
2019-04-29T15:03:00.076Z,1328.00
2019-04-29T15:03:55.667Z,1320.00
2019-04-29T15:04:55.699Z,1316.00
2019-04-29T15:05:55.694Z,1308.00
2019-04-29T15:06:55.630Z,1300.00
2019-04-29T15:07:55.673Z,1300.00
2019-04-29T15:08:55.701Z,1308.00
2019-04-29T15:09:57.320Z,1292.00
2019-04-29T15:10:55.721Z,1304.00
2019-04-29T15:11:58.577Z,1304.00
2019-04-29T15:13:01.402Z,1328.00
2019-04-29T15:13:55.891Z,1340.00
2019-04-29T15:14:59.242Z,1328.00
2019-04-29T15:16:04.314Z,1336.00
2019-04-29T15:16:55.630Z,1344.00
2019-04-29T15:17:55.704Z,1340.00
2019-04-29T15:18:55.632Z,1344.00
2019-04-29T15:19:56.514Z,1340.00
2019-04-29T15:20:56.531Z,1336.00
2019-04-29T15:21:55.605Z,1324.00
2019-04-29T15:22:55.595Z,1320.00
2019-04-29T15:23:55.610Z,1312.00
2019-04-29T15:24:55.629Z,1308.00
2019-04-29T15:25:55.618Z,1320.00
2019-04-29T15:26:55.593Z,1332.00
2019-04-29T15:27:55.622Z,1344.00
2019-04-29T15:28:55.628Z,1352.00
2019-04-29T15:29:55.583Z,1364.00
2019-04-29T15:30:55.583Z,1376.00
2019-04-29T15:31:55.611Z,1388.00
2019-04-29T15:32:58.059Z,1372.00
2019-04-29T15:33:55.584Z,1360.00
2019-04-29T15:34:55.606Z,1332.00
2019-04-29T15:35:59.932Z,1308.00
2019-04-29T15:36:55.584Z,1280.00
2019-04-29T15:39:08.568Z,1216.00
2019-04-29T15:39:58.365Z,1180.00
2019-04-29T15:40:55.583Z,1148.00
2019-04-29T15:41:55.822Z,1104.00
2019-04-29T15:42:55.567Z,1088.00
2019-04-29T15:44:07.096Z,1056.00
2019-04-29T15:44:56.914Z,1036.00
2019-04-29T15:45:55.596Z,1004.00
2019-04-29T15:46:55.570Z,976.00
2019-04-29T15:47:55.567Z,960.00
2019-04-29T15:48:55.562Z,932.00
2019-04-29T15:50:00.383Z,904.00
2019-04-29T15:50:55.561Z,864.00
2019-04-29T15:51:55.560Z,828.00
2019-04-29T15:52:58.782Z,788.00
2019-04-29T15:53:55.553Z,748.00
2019-04-29T15:54:55.548Z,740.00
2019-04-29T15:56:06.725Z,696.00
2019-04-29T15:56:55.876Z,644.00
2019-04-29T15:57:55.571Z,624.00
2019-04-29T15:58:59.730Z,608.00
2019-04-29T16:01:11.537Z,572.00
2019-04-29T16:01:59.152Z,564.00
2019-04-29T16:02:55.610Z,540.00
2019-04-29T16:03:56.908Z,516.00
2019-04-29T16:04:55.556Z,504.00
2019-04-29T16:06:19.221Z,468.00
2019-04-29T16:06:55.535Z,428.00
2019-04-29T16:07:57.122Z,388.00
2019-04-29T16:08:58.865Z,356.00
2019-04-29T16:09:55.528Z,340.00
2019-04-29T16:10:57.822Z,340.00
2019-04-29T16:11:55.529Z,356.00
2019-04-29T16:12:55.559Z,376.00
2019-04-29T16:14:09.077Z,408.00
2019-04-29T16:14:55.510Z,440.00
2019-04-29T16:15:55.512Z,464.00
2019-04-29T16:16:55.537Z,480.00
2019-04-29T16:17:55.518Z,492.00
2019-04-29T16:19:07.310Z,480.00
2019-04-29T16:19:55.584Z,528.00
2019-04-29T16:20:55.553Z,536.00
2019-04-29T16:21:55.525Z,552.00
2019-04-29T16:23:00.530Z,548.00
2019-04-29T16:23:57.690Z,556.00
2019-04-29T16:24:59.379Z,556.00
2019-04-29T16:25:55.503Z,548.00
2019-04-29T16:26:55.489Z,552.00
2019-04-29T16:27:55.520Z,536.00
2019-04-29T16:28:55.501Z,504.00
2019-04-29T16:29:55.548Z,492.00
2019-04-29T16:30:55.506Z,448.00
2019-04-29T16:32:02.391Z,444.00
2019-04-29T16:32:55.549Z,416.00